createdAt,value
2022-08-01T00:00:33.813Z,22.39
2022-08-01T00:01:33.814Z,22.29
2022-08-01T00:02:33.795Z,22.12
2022-08-01T00:03:33.792Z,22.31
2022-08-01T00:04:33.777Z,22.54
2022-08-01T00:05:33.811Z,22.47
2022-08-01T00:06:33.786Z,22.38
2022-08-01T00:07:33.768Z,22.29
2022-08-01T00:08:33.756Z,22.32
2022-08-01T00:09:33.748Z,22.28
2022-08-01T00:10:33.759Z,22.13
2022-08-01T00:11:33.764Z,22.22
2022-08-01T00:12:33.737Z,22.32
2022-08-01T00:13:33.749Z,22.23
2022-08-01T00:14:33.712Z,22.41
2022-08-01T00:15:33.742Z,22.50
2022-08-01T00:16:33.720Z,22.50
2022-08-01T00:17:33.698Z,22.57
2022-08-01T00:18:33.702Z,22.65
2022-08-01T00:19:33.688Z,22.50
2022-08-01T00:20:33.678Z,22.37
2022-08-01T00:21:33.694Z,22.49
2022-08-01T00:22:33.683Z,22.17
2022-08-01T00:23:33.669Z,22.31
2022-08-01T00:24:33.657Z,22.39
2022-08-01T00:25:34.695Z,22.59
2022-08-01T00:26:33.669Z,22.69
2022-08-01T00:27:33.657Z,22.62
2022-08-01T00:28:33.637Z,22.68
2022-08-01T00:30:10.037Z,22.67
2022-08-01T00:30:34.631Z,22.74
2022-08-01T00:31:33.626Z,22.65
2022-08-01T00:32:33.626Z,22.71
2022-08-01T00:33:33.613Z,22.72
2022-08-01T00:34:33.657Z,22.68
2022-08-01T00:35:33.593Z,22.56
2022-08-01T00:36:33.581Z,22.67
2022-08-01T00:37:33.619Z,22.64
2022-08-01T00:38:33.594Z,22.65
2022-08-01T00:39:33.573Z,22.64
2022-08-01T00:40:33.570Z,22.57
2022-08-01T00:41:33.558Z,22.44
2022-08-01T00:42:33.593Z,22.28
2022-08-01T00:43:33.538Z,22.28
2022-08-01T00:44:33.537Z,22.28
2022-08-01T00:45:33.565Z,22.35
2022-08-01T00:46:33.569Z,22.49
2022-08-01T00:47:33.540Z,22.38
2022-08-01T00:48:33.545Z,22.47
2022-08-01T00:49:33.565Z,22.43
2022-08-01T00:50:33.557Z,22.53
2022-08-01T00:51:33.504Z,22.37
2022-08-01T00:52:33.499Z,22.31
2022-08-01T00:53:38.765Z,22.37
2022-08-01T00:54:34.486Z,22.29
2022-08-01T00:55:33.492Z,22.28
2022-08-01T00:56:33.480Z,22.19
2022-08-01T00:58:02.812Z,22.27
2022-08-01T00:58:34.447Z,22.28
2022-08-01T00:59:34.492Z,22.22
2022-08-01T01:00:34.522Z,22.20
2022-08-01T01:01:39.555Z,22.14
2022-08-01T01:02:34.463Z,22.27
2022-08-01T01:03:57.379Z,22.19
2022-08-01T01:04:35.427Z,22.31
2022-08-01T01:05:37.324Z,22.28
2022-08-01T01:06:34.432Z,22.38
2022-08-01T01:07:33.416Z,22.25
2022-08-01T01:08:33.471Z,22.37
2022-08-01T01:09:33.391Z,22.28
2022-08-01T01:10:33.382Z,22.20
2022-08-01T01:11:33.408Z,22.31
2022-08-01T01:12:38.295Z,22.27
2022-08-01T01:13:35.399Z,22.31
2022-08-01T01:14:34.376Z,22.28
2022-08-01T01:15:33.359Z,22.27
2022-08-01T01:16:33.345Z,22.34
2022-08-01T01:17:51.304Z,22.47
2022-08-01T01:18:34.363Z,22.47
2022-08-01T01:19:33.329Z,22.44
2022-08-01T01:20:33.335Z,22.49
2022-08-01T01:21:33.331Z,22.65
2022-08-01T01:22:33.315Z,22.60
2022-08-01T01:23:33.333Z,22.64
2022-08-01T01:24:33.310Z,22.64
2022-08-01T01:25:33.301Z,22.68
2022-08-01T01:26:33.291Z,22.46
2022-08-01T01:27:33.284Z,22.44
2022-08-01T01:28:33.287Z,22.57
2022-08-01T01:29:59.932Z,22.50
2022-08-01T01:30:34.260Z,22.67
2022-08-01T01:31:33.283Z,22.71
2022-08-01T01:32:33.265Z,22.62
2022-08-01T01:33:33.278Z,22.67
2022-08-01T01:34:33.243Z,22.57
2022-08-01T01:35:33.238Z,22.57
2022-08-01T01:36:33.232Z,22.60
2022-08-01T01:37:33.222Z,22.67
2022-08-01T01:38:33.258Z,22.57
2022-08-01T01:39:33.218Z,22.57
2022-08-01T01:40:33.219Z,22.49
2022-08-01T01:41:33.209Z,22.62
2022-08-01T01:42:33.193Z,22.71
2022-08-01T01:43:33.755Z,22.67
2022-08-01T01:44:33.197Z,22.49
2022-08-01T01:45:33.169Z,22.46
2022-08-01T01:46:33.169Z,22.38
2022-08-01T01:47:33.170Z,22.44
2022-08-01T01:48:33.166Z,22.27
2022-08-01T01:49:33.274Z,22.37
2022-08-01T01:50:33.149Z,22.52
2022-08-01T01:51:33.146Z,22.54
2022-08-01T01:52:33.138Z,22.60
2022-08-01T01:53:33.138Z,22.71
2022-08-01T01:54:33.146Z,22.60
2022-08-01T01:55:33.122Z,22.77
2022-08-01T01:56:34.137Z,22.71
2022-08-01T01:57:33.111Z,22.77
2022-08-01T01:58:33.150Z,22.60
2022-08-01T01:59:33.098Z,22.77
2022-08-01T02:00:33.092Z,22.71
2022-08-01T02:02:05.410Z,22.90
2022-08-01T02:02:34.106Z,22.78
2022-08-01T02:03:33.081Z,22.69
2022-08-01T02:04:33.067Z,22.77
2022-08-01T02:05:33.068Z,22.35
2022-08-01T02:06:33.055Z,22.27
2022-08-01T02:07:33.062Z,22.16
2022-08-01T02:08:33.040Z,22.27
2022-08-01T02:09:33.053Z,22.44
2022-08-01T02:10:33.053Z,22.46
2022-08-01T02:11:33.061Z,22.47
2022-08-01T02:12:33.028Z,22.60
2022-08-01T02:13:33.032Z,22.47
2022-08-01T02:14:33.013Z,22.56
2022-08-01T02:15:33.013Z,22.67
2022-08-01T02:16:32.993Z,22.72
2022-08-01T02:17:33.013Z,22.65
2022-08-01T02:18:32.989Z,22.46
2022-08-01T02:19:32.985Z,22.50
2022-08-01T02:20:32.980Z,22.38
2022-08-01T02:21:32.965Z,22.37
2022-08-01T02:22:32.973Z,22.31
2022-08-01T02:23:32.978Z,22.31
2022-08-01T02:24:32.970Z,22.37
2022-08-01T02:25:32.946Z,22.27
2022-08-01T02:26:33.930Z,22.39
2022-08-01T02:27:32.930Z,22.44
2022-08-01T02:28:32.924Z,22.44
2022-08-01T02:29:32.926Z,22.52
2022-08-01T02:30:32.934Z,22.47
2022-08-01T02:31:32.916Z,22.49
2022-08-01T02:32:32.922Z,22.60
2022-08-01T02:33:32.907Z,22.60
2022-08-01T02:34:32.896Z,22.68
2022-08-01T02:35:32.910Z,22.53
2022-08-01T02:36:33.568Z,22.59
2022-08-01T02:37:33.880Z,22.50
2022-08-01T02:38:32.868Z,22.49
2022-08-01T02:39:32.870Z,22.68
2022-08-01T02:40:32.859Z,22.60
2022-08-01T02:41:32.854Z,22.44
2022-08-01T02:42:32.861Z,22.28
2022-08-01T02:43:32.833Z,22.31
2022-08-01T02:44:32.897Z,22.50
2022-08-01T02:45:32.826Z,22.46
2022-08-01T02:46:32.825Z,22.41
2022-08-01T02:47:32.805Z,22.43
2022-08-01T02:48:32.817Z,22.46
2022-08-01T02:49:32.859Z,22.28
2022-08-01T02:50:32.813Z,22.28
2022-08-01T02:51:32.781Z,22.23
2022-08-01T02:52:32.785Z,22.29
2022-08-01T02:53:43.737Z,22.27
2022-08-01T02:54:33.777Z,22.34
2022-08-01T02:55:32.774Z,22.43
2022-08-01T02:56:32.815Z,22.39
2022-08-01T02:57:50.661Z,22.50
2022-08-01T02:58:34.745Z,22.43
2022-08-01T02:59:32.757Z,22.47
2022-08-01T03:00:32.732Z,22.31
2022-08-01T03:01:32.819Z,22.56
2022-08-01T03:02:32.725Z,22.52
2022-08-01T03:03:32.717Z,22.64
2022-08-01T03:04:32.728Z,22.57
2022-08-01T03:05:32.759Z,22.50
2022-08-01T03:06:32.713Z,22.39
2022-08-01T03:07:34.278Z,22.47
2022-08-01T03:08:32.676Z,22.59
2022-08-01T03:09:32.676Z,22.54
2022-08-01T03:10:32.695Z,22.57
2022-08-01T03:11:32.669Z,22.52
2022-08-01T03:12:32.675Z,22.54
2022-08-01T03:13:33.170Z,22.38
2022-08-01T03:14:32.645Z,22.28
2022-08-01T03:15:32.649Z,22.38
2022-08-01T03:16:32.629Z,22.41
2022-08-01T03:17:32.677Z,22.46
2022-08-01T03:18:32.633Z,22.32
2022-08-01T03:19:32.637Z,22.20
2022-08-01T03:20:32.609Z,22.37
2022-08-01T03:21:32.608Z,22.32
2022-08-01T03:22:32.601Z,22.25
2022-08-01T03:23:37.774Z,22.32
2022-08-01T03:24:33.585Z,22.41
2022-08-01T03:25:32.589Z,22.60
2022-08-01T03:26:32.589Z,22.53
2022-08-01T03:27:32.594Z,22.59
2022-08-01T03:28:32.568Z,22.52
2022-08-01T03:29:32.551Z,22.57
2022-08-01T03:30:32.557Z,22.28
2022-08-01T03:31:32.539Z,22.31
2022-08-01T03:32:32.529Z,22.38
2022-08-01T03:33:32.553Z,22.41
2022-08-01T03:34:32.516Z,22.44
2022-08-01T03:35:32.520Z,22.49
2022-08-01T03:36:32.492Z,22.56
2022-08-01T03:37:33.532Z,22.47
2022-08-01T03:38:32.529Z,22.46
2022-08-01T03:39:32.501Z,22.44
2022-08-01T03:40:32.480Z,22.41
2022-08-01T03:41:32.513Z,22.46
2022-08-01T03:42:32.471Z,22.44
2022-08-01T03:43:32.470Z,22.43
2022-08-01T03:44:32.480Z,22.38
2022-08-01T03:45:32.467Z,22.47
2022-08-01T03:46:32.444Z,22.37
2022-08-01T03:47:32.445Z,22.52
2022-08-01T03:48:32.517Z,22.50
2022-08-01T03:49:32.509Z,22.52
2022-08-01T03:50:32.429Z,22.47
2022-08-01T03:51:32.452Z,22.25
2022-08-01T03:52:32.401Z,22.27
2022-08-01T03:53:32.406Z,22.28
2022-08-01T03:54:32.387Z,22.32
2022-08-01T03:55:32.397Z,22.44
2022-08-01T03:56:32.417Z,22.43
2022-08-01T03:57:35.630Z,22.39
2022-08-01T03:58:32.357Z,22.37
2022-08-01T03:59:32.361Z,22.37
2022-08-01T04:00:32.370Z,22.29
2022-08-01T04:01:32.396Z,22.44
2022-08-01T04:02:32.336Z,22.39
2022-08-01T04:03:32.357Z,22.54
2022-08-01T04:04:33.324Z,22.57
2022-08-01T04:05:32.329Z,22.62
2022-08-01T04:06:32.320Z,22.59
2022-08-01T04:07:32.305Z,22.68
2022-08-01T04:08:32.319Z,22.77
2022-08-01T04:09:32.296Z,22.59
2022-08-01T04:10:32.308Z,22.69
2022-08-01T04:11:32.308Z,22.68
2022-08-01T04:12:32.284Z,22.77
2022-08-01T04:13:37.095Z,22.71
2022-08-01T04:14:33.268Z,22.67
2022-08-01T04:15:32.283Z,22.62
2022-08-01T04:16:32.252Z,22.71
2022-08-01T04:17:32.257Z,22.68
2022-08-01T04:18:32.289Z,22.67
2022-08-01T04:19:32.239Z,22.57
2022-08-01T04:20:32.236Z,22.59
2022-08-01T04:21:32.266Z,22.29
2022-08-01T04:22:32.221Z,22.13
2022-08-01T04:23:33.214Z,22.27
2022-08-01T04:24:32.208Z,22.06
2022-08-01T04:25:32.212Z,22.06
2022-08-01T04:26:32.201Z,22.10
2022-08-01T04:27:49.743Z,22.01
2022-08-01T04:28:33.184Z,22.10
2022-08-01T04:29:32.171Z,22.17
2022-08-01T04:30:32.180Z,22.01
2022-08-01T04:31:32.220Z,22.17
2022-08-01T04:32:32.156Z,22.14
2022-08-01T04:33:32.142Z,22.20
2022-08-01T04:34:32.150Z,22.47
2022-08-01T04:36:01.417Z,22.41
2022-08-01T04:36:33.120Z,22.29
2022-08-01T04:37:32.137Z,22.19
2022-08-01T04:38:32.139Z,22.25
2022-08-01T04:39:32.110Z,22.31
2022-08-01T04:40:32.092Z,22.37
2022-08-01T04:41:32.111Z,22.35
2022-08-01T04:42:33.322Z,22.44
2022-08-01T04:43:32.106Z,22.43
2022-08-01T04:44:32.775Z,22.67
2022-08-01T04:45:33.072Z,22.50
2022-08-01T04:46:32.056Z,22.60
2022-08-01T04:47:33.076Z,22.59
2022-08-01T04:48:32.069Z,22.46
2022-08-01T04:49:32.111Z,22.50
2022-08-01T04:50:33.063Z,22.46
2022-08-01T04:51:32.048Z,22.49
2022-08-01T04:52:32.022Z,22.46
2022-08-01T04:53:32.008Z,22.53
2022-08-01T04:54:33.030Z,22.46
2022-08-01T04:55:32.038Z,22.44
2022-08-01T04:56:32.020Z,22.53
2022-08-01T04:57:32.005Z,22.62
2022-08-01T04:58:32.053Z,22.75
2022-08-01T04:59:31.981Z,22.68
2022-08-01T05:00:31.978Z,22.86
2022-08-01T05:01:32.047Z,22.86
2022-08-01T05:02:31.956Z,22.86
2022-08-01T05:03:35.840Z,22.94
2022-08-01T05:04:32.957Z,22.93
2022-08-01T05:05:31.957Z,22.97
2022-08-01T05:06:31.948Z,22.96
2022-08-01T05:07:31.964Z,22.94
2022-08-01T05:08:32.929Z,22.93
2022-08-01T05:09:31.940Z,22.89
2022-08-01T05:10:31.912Z,22.93
2022-08-01T05:11:31.948Z,23.05
2022-08-01T05:12:31.912Z,22.89
2022-08-01T05:13:31.904Z,22.94
2022-08-01T05:14:31.904Z,22.87
2022-08-01T05:15:31.897Z,22.75
2022-08-01T05:16:31.892Z,22.89
2022-08-01T05:17:31.876Z,22.89
2022-08-01T05:18:31.889Z,22.96
2022-08-01T05:19:31.868Z,22.92
2022-08-01T05:20:31.859Z,22.94
2022-08-01T05:21:31.853Z,22.94
2022-08-01T05:22:31.845Z,22.96
2022-08-01T05:23:43.094Z,23.02
2022-08-01T05:24:32.931Z,22.94
2022-08-01T05:25:57.349Z,22.60
2022-08-01T05:26:32.817Z,22.07
2022-08-01T05:27:31.817Z,22.14
2022-08-01T05:28:31.872Z,22.43
2022-08-01T05:29:31.789Z,22.28
2022-08-01T05:30:31.833Z,22.39
2022-08-01T05:31:31.781Z,22.49
2022-08-01T05:32:31.785Z,22.54
2022-08-01T05:33:31.792Z,22.67
2022-08-01T05:34:31.793Z,22.69
2022-08-01T05:35:48.064Z,22.49
2022-08-01T05:36:32.840Z,22.52
2022-08-01T05:37:31.751Z,22.60
2022-08-01T05:38:31.747Z,22.67
2022-08-01T05:39:31.768Z,22.65
2022-08-01T05:40:31.731Z,22.67
2022-08-01T05:41:31.761Z,22.71
2022-08-01T05:42:31.722Z,22.60
2022-08-01T05:43:31.724Z,22.29
2022-08-01T05:44:31.751Z,22.04
2022-08-01T05:45:31.699Z,21.98
2022-08-01T05:46:32.920Z,22.09
2022-08-01T05:47:31.688Z,22.31
2022-08-01T05:48:31.704Z,22.28
2022-08-01T05:49:31.780Z,22.23
2022-08-01T05:50:31.667Z,22.35
2022-08-01T05:51:31.668Z,22.47
2022-08-01T05:52:31.663Z,22.60
2022-08-01T05:53:31.659Z,22.52
2022-08-01T05:54:31.671Z,22.62
2022-08-01T05:55:31.664Z,22.65
2022-08-01T05:56:32.457Z,22.64
2022-08-01T05:57:32.638Z,22.72
2022-08-01T05:58:31.627Z,22.68
2022-08-01T05:59:31.634Z,22.71
2022-08-01T06:01:05.214Z,22.62
2022-08-01T06:01:31.618Z,22.74
2022-08-01T06:02:31.627Z,22.74
2022-08-01T06:03:31.607Z,22.74
2022-08-01T06:04:31.604Z,22.84
2022-08-01T06:05:31.603Z,22.86
2022-08-01T06:06:31.656Z,22.80
2022-08-01T06:07:31.592Z,22.86
2022-08-01T06:08:31.576Z,22.89
2022-08-01T06:09:31.571Z,22.90
2022-08-01T06:10:32.191Z,22.94
2022-08-01T06:11:31.605Z,22.96
2022-08-01T06:12:35.484Z,23.09
2022-08-01T06:13:32.633Z,23.12
2022-08-01T06:14:32.518Z,23.08
2022-08-01T06:15:32.371Z,23.12
2022-08-01T06:16:31.505Z,23.11
2022-08-01T06:17:31.559Z,22.90
2022-08-01T06:18:31.515Z,22.92
2022-08-01T06:19:31.511Z,22.86
2022-08-01T06:20:31.507Z,22.94
2022-08-01T06:21:31.491Z,22.90
2022-08-01T06:22:31.541Z,22.72
2022-08-01T06:23:32.625Z,22.65
2022-08-01T06:24:32.235Z,22.93
2022-08-01T06:25:31.687Z,22.96
2022-08-01T06:26:31.501Z,23.12
2022-08-01T06:27:31.522Z,23.11
2022-08-01T06:28:31.458Z,23.11
2022-08-01T06:29:31.468Z,23.12
2022-08-01T06:30:31.498Z,23.12
2022-08-01T06:31:33.769Z,23.19
2022-08-01T06:32:32.430Z,23.20
2022-08-01T06:33:31.468Z,23.40
2022-08-01T06:34:31.475Z,23.40
2022-08-01T06:35:31.439Z,23.35
2022-08-01T06:36:31.417Z,23.35
2022-08-01T06:37:31.445Z,23.47
2022-08-01T06:38:31.402Z,23.49
2022-08-01T06:39:31.386Z,23.43
2022-08-01T06:40:31.389Z,23.47
2022-08-01T06:41:31.417Z,23.65
2022-08-01T06:42:31.399Z,23.72
2022-08-01T06:43:31.393Z,23.46
2022-08-01T06:44:31.366Z,23.60
2022-08-01T06:45:31.367Z,23.70
2022-08-01T06:46:32.642Z,23.71
2022-08-01T06:47:31.367Z,23.65
2022-08-01T06:48:31.332Z,23.67
2022-08-01T06:49:31.397Z,23.72
2022-08-01T06:50:31.323Z,23.79
2022-08-01T06:51:31.335Z,23.79
2022-08-01T06:52:31.344Z,24.05
2022-08-01T06:53:36.293Z,24.19
2022-08-01T06:54:33.366Z,24.13
2022-08-01T06:55:31.311Z,24.24
2022-08-01T06:56:31.380Z,24.23
2022-08-01T06:57:31.286Z,24.14
2022-08-01T06:58:31.794Z,24.26
2022-08-01T06:59:31.277Z,24.39
2022-08-01T07:00:31.314Z,24.49
2022-08-01T07:01:34.349Z,24.56
2022-08-01T07:02:31.269Z,24.69
2022-08-01T07:03:53.954Z,24.50
2022-08-01T07:04:32.229Z,24.49
2022-08-01T07:05:31.266Z,24.47
2022-08-01T07:06:32.302Z,24.50
2022-08-01T07:07:31.241Z,24.57
2022-08-01T07:08:31.209Z,24.47
2022-08-01T07:09:31.210Z,24.59
2022-08-01T07:10:31.206Z,24.57
2022-08-01T07:11:31.206Z,24.67
2022-08-01T07:12:31.266Z,24.67
2022-08-01T07:13:43.953Z,24.76
2022-08-01T07:14:32.182Z,24.60
2022-08-01T07:15:31.182Z,24.61
2022-08-01T07:16:32.234Z,24.27
2022-08-01T07:17:31.187Z,24.10
2022-08-01T07:18:31.192Z,24.07
2022-08-01T07:19:31.242Z,24.27
2022-08-01T07:20:34.905Z,24.41
2022-08-01T07:21:39.850Z,24.50
2022-08-01T07:22:32.158Z,24.59
2022-08-01T07:23:34.115Z,24.60
2022-08-01T07:24:31.119Z,24.69
2022-08-01T07:25:31.128Z,24.80
2022-08-01T07:26:31.119Z,24.85
2022-08-01T07:27:31.125Z,24.94
2022-08-01T07:28:31.110Z,24.97
2022-08-01T07:29:31.089Z,24.97
2022-08-01T07:30:31.099Z,25.06
2022-08-01T07:31:32.452Z,25.06
2022-08-01T07:32:32.084Z,25.05
2022-08-01T07:33:48.362Z,25.06
2022-08-01T07:34:32.036Z,25.01
2022-08-01T07:35:31.114Z,24.95
2022-08-01T07:36:31.038Z,24.88
2022-08-01T07:37:48.398Z,25.00
2022-08-01T07:38:32.034Z,25.27
2022-08-01T07:39:31.112Z,25.31
2022-08-01T07:40:32.079Z,25.16
2022-08-01T07:41:53.069Z,24.91
2022-08-01T07:42:31.998Z,24.64
2022-08-01T07:43:30.995Z,24.92
2022-08-01T07:44:31.012Z,25.13
2022-08-01T07:45:30.966Z,25.24
2022-08-01T07:46:30.961Z,25.49
2022-08-01T07:47:30.959Z,25.54
2022-08-01T07:48:30.962Z,25.67
2022-08-01T07:49:32.992Z,25.79
2022-08-01T07:50:33.604Z,25.65
2022-08-01T07:51:31.010Z,25.09
2022-08-01T07:52:30.925Z,24.85
2022-08-01T07:53:30.964Z,25.16
2022-08-01T07:54:33.072Z,25.31
2022-08-01T07:55:30.935Z,25.75
2022-08-01T07:56:30.891Z,25.86
2022-08-01T07:57:30.878Z,25.99
2022-08-01T07:58:30.904Z,25.94
2022-08-01T07:59:30.939Z,26.31
2022-08-01T08:00:30.865Z,26.28
2022-08-01T08:01:30.927Z,25.90
2022-08-01T08:02:30.951Z,25.67
2022-08-01T08:03:30.828Z,25.82
2022-08-01T08:04:30.858Z,25.99
2022-08-01T08:05:57.730Z,25.68
2022-08-01T08:06:31.819Z,25.74
2022-08-01T08:07:30.806Z,25.72
2022-08-01T08:08:30.798Z,25.67
2022-08-01T08:09:30.802Z,25.38
2022-08-01T08:10:31.790Z,24.88
2022-08-01T08:11:30.802Z,24.56
2022-08-01T08:12:30.806Z,24.27
2022-08-01T08:13:30.761Z,24.50
2022-08-01T08:14:32.430Z,24.45
2022-08-01T08:15:30.753Z,24.67
2022-08-01T08:16:30.769Z,24.63
2022-08-01T08:17:36.116Z,24.61
2022-08-01T08:18:31.753Z,24.50
2022-08-01T08:19:38.392Z,24.20
2022-08-01T08:20:31.734Z,24.45
2022-08-01T08:21:30.713Z,24.67
2022-08-01T08:22:30.709Z,24.61
2022-08-01T08:23:41.809Z,24.83
2022-08-01T08:24:31.767Z,24.90
2022-08-01T08:25:30.716Z,25.25
2022-08-01T08:26:30.674Z,25.27
2022-08-01T08:27:30.659Z,25.61
2022-08-01T08:28:30.688Z,25.86
2022-08-01T08:29:30.690Z,26.08
2022-08-01T08:30:30.661Z,26.44
2022-08-01T08:31:51.871Z,26.69
2022-08-01T08:32:31.624Z,26.24
2022-08-01T08:33:30.652Z,26.32
2022-08-01T08:34:30.635Z,26.58
2022-08-01T08:35:40.495Z,26.77
2022-08-01T08:36:31.764Z,26.52
2022-08-01T08:37:31.404Z,26.58
2022-08-01T08:38:31.626Z,26.84
2022-08-01T08:39:30.629Z,26.55
2022-08-01T08:40:30.631Z,26.39
2022-08-01T08:41:37.020Z,26.39
2022-08-01T08:42:31.600Z,26.11
2022-08-01T08:43:30.558Z,26.42
2022-08-01T08:44:30.615Z,26.50
2022-08-01T08:45:56.247Z,26.89
2022-08-01T08:46:31.535Z,27.09
2022-08-01T08:47:30.522Z,27.23
2022-08-01T08:48:30.564Z,27.06
2022-08-01T08:49:35.412Z,26.98
2022-08-01T08:50:31.511Z,26.61
2022-08-01T08:51:30.538Z,26.46
2022-08-01T08:52:30.522Z,26.40
2022-08-01T08:53:34.921Z,26.46
2022-08-01T08:54:31.501Z,26.54
2022-08-01T08:55:30.477Z,26.89
2022-08-01T08:56:30.534Z,27.06
2022-08-01T08:57:30.473Z,27.58
2022-08-01T08:58:31.918Z,28.23
2022-08-01T08:59:30.498Z,29.31
2022-08-01T09:00:30.474Z,29.57
2022-08-01T09:01:30.437Z,29.55
2022-08-01T09:02:30.433Z,28.95
2022-08-01T09:03:30.557Z,29.06
2022-08-01T09:04:30.434Z,28.84
2022-08-01T09:05:38.912Z,28.72
2022-08-01T09:06:31.401Z,28.88
2022-08-01T09:07:30.483Z,29.19
2022-08-01T09:08:30.399Z,28.77
2022-08-01T09:09:30.406Z,29.18
2022-08-01T09:10:30.377Z,29.50
2022-08-01T09:11:30.394Z,29.45
2022-08-01T09:12:30.386Z,29.59
2022-08-01T09:13:30.355Z,30.33
2022-08-01T09:14:30.370Z,31.92
2022-08-01T09:15:33.830Z,32.32
2022-08-01T09:16:30.556Z,32.91
2022-08-01T09:17:30.348Z,32.66
2022-08-01T09:18:30.376Z,31.73
2022-08-01T09:19:39.614Z,32.36
2022-08-01T09:20:31.338Z,34.11
2022-08-01T09:21:30.317Z,34.05
2022-08-01T09:22:30.308Z,33.74
2022-08-01T09:23:30.313Z,33.92
2022-08-01T09:24:30.497Z,32.98
2022-08-01T09:25:30.320Z,31.77
2022-08-01T09:26:31.306Z,31.43
2022-08-01T09:27:30.306Z,31.27
2022-08-01T09:28:30.275Z,31.57
2022-08-01T09:29:37.377Z,31.17
2022-08-01T09:30:31.355Z,30.99
2022-08-01T09:31:38.213Z,30.64
2022-08-01T09:32:36.276Z,30.18
2022-08-01T09:33:34.923Z,30.03
2022-08-01T09:34:32.247Z,29.43
2022-08-01T09:35:32.074Z,29.16
2022-08-01T09:36:31.573Z,29.90
2022-08-01T09:37:37.555Z,31.87
2022-08-01T09:38:32.227Z,31.93
2022-08-01T09:39:30.209Z,33.03
2022-08-01T09:40:30.205Z,33.34
2022-08-01T09:41:37.470Z,34.01
2022-08-01T09:42:31.203Z,34.32
2022-08-01T09:43:31.413Z,34.95
2022-08-01T09:44:42.365Z,33.51
2022-08-01T09:45:41.563Z,31.64
2022-08-01T09:46:31.197Z,31.54
2022-08-01T09:47:30.141Z,32.71
2022-08-01T09:48:30.350Z,32.27
2022-08-01T09:49:51.984Z,32.02
2022-08-01T09:50:31.152Z,32.02
2022-08-01T09:51:59.016Z,33.19
2022-08-01T09:52:31.179Z,33.33
2022-08-01T09:53:31.158Z,32.39
2022-08-01T09:54:31.156Z,30.62
2022-08-01T09:55:30.102Z,30.46
2022-08-01T09:56:30.126Z,30.75
2022-08-01T09:57:30.100Z,32.06
2022-08-01T09:58:30.095Z,33.63
2022-08-01T09:59:36.199Z,34.20
2022-08-01T10:00:44.827Z,34.42
2022-08-01T10:01:37.274Z,34.86
2022-08-01T10:02:31.071Z,35.01
2022-08-01T10:03:30.227Z,34.11
2022-08-01T10:04:30.120Z,33.31
2022-08-01T10:05:30.094Z,32.88
2022-08-01T10:06:31.064Z,32.36
2022-08-01T10:07:43.236Z,30.40
2022-08-01T10:08:31.077Z,30.29
2022-08-01T10:09:40.317Z,30.08
2022-08-01T10:10:31.554Z,29.96
2022-08-01T10:11:36.577Z,30.30
2022-08-01T10:12:31.064Z,30.27
2022-08-01T10:13:36.351Z,29.87
2022-08-01T10:14:31.036Z,28.81
2022-08-01T10:15:37.091Z,27.62
2022-08-01T10:16:31.031Z,27.23
2022-08-01T10:17:51.024Z,27.32
2022-08-01T10:18:31.038Z,29.10
2022-08-01T10:19:30.028Z,30.11
2022-08-01T10:20:31.189Z,31.38
2022-08-01T10:21:56.407Z,32.37
2022-08-01T10:22:30.971Z,33.57
2022-08-01T10:23:40.592Z,34.53
2022-08-01T10:24:30.971Z,34.92
2022-08-01T10:25:42.759Z,34.09
2022-08-01T10:26:30.976Z,33.26
2022-08-01T10:27:38.053Z,32.48
2022-08-01T10:28:30.930Z,33.48
2022-08-01T10:29:59.765Z,34.09
2022-08-01T10:30:30.948Z,35.40
2022-08-01T10:31:30.848Z,35.99
2022-08-01T10:32:29.926Z,35.55
2022-08-01T10:33:52.724Z,34.89
2022-08-01T10:34:30.947Z,34.23
2022-08-01T10:35:47.222Z,31.55
2022-08-01T10:36:30.915Z,32.86
2022-08-01T10:37:29.915Z,32.36
2022-08-01T10:38:29.908Z,32.73
2022-08-01T10:39:29.923Z,31.67
2022-08-01T10:40:31.323Z,30.37
2022-08-01T10:41:30.906Z,31.39
2022-08-01T10:42:29.918Z,32.64
2022-08-01T10:43:29.874Z,33.71
2022-08-01T10:44:29.891Z,34.36
2022-08-01T10:45:30.458Z,34.36
2022-08-01T10:46:29.856Z,34.27
2022-08-01T10:47:51.009Z,33.31
2022-08-01T10:48:30.864Z,31.92
2022-08-01T10:49:29.904Z,30.62
2022-08-01T10:50:29.847Z,30.11
2022-08-01T10:51:52.966Z,30.00
2022-08-01T10:52:30.818Z,29.97
2022-08-01T10:53:31.796Z,29.79
2022-08-01T10:54:30.795Z,29.31
2022-08-01T10:55:29.809Z,29.19
2022-08-01T10:56:29.837Z,28.75
2022-08-01T10:57:29.787Z,30.37
2022-08-01T10:58:29.797Z,31.55
2022-08-01T10:59:49.742Z,32.64
2022-08-01T11:00:30.870Z,32.86
2022-08-01T11:01:29.827Z,33.39
2022-08-01T11:02:31.721Z,34.08
2022-08-01T11:03:54.413Z,34.14
2022-08-01T11:04:31.755Z,34.66
2022-08-01T11:05:29.755Z,35.23
2022-08-01T11:06:29.799Z,35.03
2022-08-01T11:07:34.928Z,35.35
2022-08-01T11:08:30.815Z,35.29
2022-08-01T11:09:36.095Z,35.37
2022-08-01T11:10:30.747Z,35.08
2022-08-01T11:11:29.735Z,35.21
2022-08-01T11:12:30.719Z,33.64
2022-08-01T11:13:29.713Z,32.93
2022-08-01T11:14:53.671Z,31.93
2022-08-01T11:15:31.780Z,31.21
2022-08-01T11:16:30.705Z,30.64
2022-08-01T11:17:29.702Z,30.09
2022-08-01T11:18:31.135Z,29.81
2022-08-01T11:19:30.685Z,29.44
2022-08-01T11:20:29.686Z,29.25
2022-08-01T11:21:59.347Z,28.78
2022-08-01T11:22:30.653Z,28.66
2022-08-01T11:23:35.997Z,29.99
2022-08-01T11:24:30.666Z,31.75
2022-08-01T11:26:05.501Z,33.49
2022-08-01T11:26:30.653Z,33.79
2022-08-01T11:27:31.530Z,33.52
2022-08-01T11:28:34.605Z,32.64
2022-08-01T11:29:31.626Z,32.29
2022-08-01T11:30:29.617Z,31.88
2022-08-01T11:31:29.641Z,31.68
2022-08-01T11:32:31.195Z,31.40
2022-08-01T11:33:30.589Z,31.42
2022-08-01T11:34:29.770Z,31.30
2022-08-01T11:35:29.627Z,31.21
2022-08-01T11:36:57.703Z,31.42
2022-08-01T11:37:31.618Z,32.98
2022-08-01T11:38:29.566Z,33.11
2022-08-01T11:39:29.760Z,32.52
2022-08-01T11:40:29.665Z,32.89
2022-08-01T11:41:37.543Z,33.23
2022-08-01T11:42:30.572Z,32.22
2022-08-01T11:43:29.578Z,32.22
2022-08-01T11:44:30.493Z,32.30
2022-08-01T11:45:29.536Z,31.70
2022-08-01T11:46:29.532Z,31.58
2022-08-01T11:47:29.848Z,31.42
2022-08-01T11:48:31.211Z,32.88
2022-08-01T11:49:29.748Z,33.39
2022-08-01T11:50:29.521Z,32.95
2022-08-01T11:51:29.559Z,33.52
2022-08-01T11:52:29.509Z,33.23
2022-08-01T11:53:29.523Z,31.27
2022-08-01T11:54:35.230Z,30.11
2022-08-01T11:55:31.346Z,30.31
2022-08-01T11:56:29.487Z,30.68
2022-08-01T11:57:34.083Z,30.98
2022-08-01T11:58:31.352Z,30.68
2022-08-01T11:59:37.884Z,30.50
2022-08-01T12:00:30.554Z,29.59
2022-08-01T12:01:29.470Z,28.93
2022-08-01T12:02:30.197Z,28.65
2022-08-01T12:03:33.513Z,28.73
2022-08-01T12:04:29.467Z,28.87
2022-08-01T12:05:29.472Z,29.55
2022-08-01T12:06:29.455Z,31.06
2022-08-01T12:07:29.467Z,32.03
2022-08-01T12:08:29.435Z,32.61
2022-08-01T12:09:29.446Z,33.67
2022-08-01T12:10:29.462Z,34.31
2022-08-01T12:11:32.453Z,34.19
2022-08-01T12:12:30.419Z,34.99
2022-08-01T12:13:29.447Z,35.51
2022-08-01T12:14:29.464Z,34.94
2022-08-01T12:15:29.432Z,35.76
2022-08-01T12:16:33.164Z,35.89
2022-08-01T12:17:29.403Z,33.85
2022-08-01T12:18:29.407Z,32.30
2022-08-01T12:19:29.413Z,32.99
2022-08-01T12:20:31.389Z,34.56
2022-08-01T12:21:30.360Z,35.28
2022-08-01T12:22:29.365Z,36.04
2022-08-01T12:23:29.353Z,35.17
2022-08-01T12:24:29.351Z,34.83
2022-08-01T12:25:29.340Z,35.48
2022-08-01T12:26:31.979Z,34.53
2022-08-01T12:27:29.343Z,33.74
2022-08-01T12:28:29.311Z,33.43
2022-08-01T12:29:29.315Z,32.88
2022-08-01T12:30:29.298Z,32.61
2022-08-01T12:31:29.318Z,32.32
2022-08-01T12:32:35.334Z,32.21
2022-08-01T12:33:30.275Z,32.15
2022-08-01T12:34:29.275Z,31.84
2022-08-01T12:35:29.267Z,31.58
2022-08-01T12:36:29.297Z,31.15
2022-08-01T12:37:29.277Z,30.86
2022-08-01T12:38:29.249Z,30.89
2022-08-01T12:39:29.287Z,31.54
2022-08-01T12:40:29.275Z,33.29
2022-08-01T12:41:29.265Z,34.11
2022-08-01T12:42:29.277Z,34.51
2022-08-01T12:43:29.667Z,33.70
2022-08-01T12:44:30.240Z,33.08
2022-08-01T12:45:29.231Z,32.37
2022-08-01T12:46:29.255Z,31.68
2022-08-01T12:47:29.247Z,31.13
2022-08-01T12:48:29.267Z,30.74
2022-08-01T12:49:29.284Z,30.64
2022-08-01T12:50:29.237Z,30.61
2022-08-01T12:51:29.183Z,30.57
2022-08-01T12:52:30.229Z,30.61